Time;durP1;ratioP1;P1;durP2;ratioP2;P2;SDS_P1;SDS_P2;PMS_P1;PMS_P2;Temp;Humidity;BMP_temperature;BMP_pressure;BME280_temperature;BME280_humidity;BME280_pressure;Samples;Min_cycle;Max_cycle;Signal;HPM_P1;HPM_P2
2022/07/12 00:02:16;;;;;;;3.13;2.92;;;26.00;38.70;;;;;;5093806;28;20621;-71
2022/07/12 00:04:43;;;;;;;3.63;3.17;;;25.90;38.50;;;;;;5093765;28;20713;-75
2022/07/12 00:07:10;;;;;;;2.78;2.58;;;25.90;39.40;;;;;;5094252;28;20205;-77
2022/07/12 00:09:37;;;;;;;3.35;3.13;;;25.90;39.60;;;;;;5092989;28;20669;-72
2022/07/12 00:12:05;;;;;;;3.80;2.35;;;25.80;39.20;;;;;;5093189;28;20516;-75
2022/07/12 00:14:32;;;;;;;3.67;2.90;;;25.70;39.90;;;;;;5092844;28;20673;-77
2022/07/12 00:17:00;;;;;;;3.10;2.80;;;25.70;40.60;;;;;;5093554;28;20202;-74
2022/07/12 00:19:27;;;;;;;2.80;2.40;;;25.60;39.90;;;;;;5092847;28;20201;-79
2022/07/12 00:21:54;;;;;;;4.25;2.47;;;25.60;39.50;;;;;;5093396;28;20205;-76
2022/07/12 00:24:21;;;;;;;2.50;2.40;;;25.60;39.40;;;;;;5092851;28;20233;-74
2022/07/12 00:26:48;;;;;;;3.45;2.65;;;25.60;40.50;;;;;;5092855;28;20669;-73
2022/07/12 00:29:15;;;;;;;2.88;2.55;;;25.60;40.50;;;;;;5093293;28;20259;-77
2022/07/12 00:31:42;;;;;;;3.47;3.22;;;25.60;43.10;;;;;;5093547;28;20201;-81
2022/07/12 00:34:10;;;;;;;2.92;2.40;;;25.60;41.00;;;;;;5093756;28;20643;-80
2022/07/12 00:36:37;;;;;;;3.05;2.83;;;25.60;40.10;;;;;;5092861;28;20206;-83
2022/07/12 00:39:04;;;;;;;2.60;2.40;;;25.50;42.10;;;;;;5091824;28;20338;-82
2022/07/12 00:41:31;;;;;;;2.28;2.13;;;25.40;40.30;;;;;;5092489;28;20205;-82
2022/07/12 00:43:58;;;;;;;3.35;2.42;;;25.40;40.80;;;;;;5093452;28;20226;-78
2022/07/12 00:46:25;;;;;;;2.70;2.50;;;25.40;42.00;;;;;;5092587;28;20732;-75
2022/07/12 00:48:54;;;;;;;3.05;2.83;;;25.30;42.50;;;;;;5091214;28;20664;-78
2022/07/12 00:51:22;;;;;;;3.17;2.90;;;25.30;41.40;;;;;;5080044;28;20255;-74
2022/07/12 00:53:51;;;;;;;3.10;2.45;;;25.30;42.20;;;;;;5092546;28;20206;-70
2022/07/12 00:56:18;;;;;;;3.45;2.90;;;25.20;42.40;;;;;;5092421;28;20267;-74
2022/07/12 00:58:45;;;;;;;2.78;2.58;;;25.10;43.10;;;;;;5092578;28;20718;-71
2022/07/12 01:01:13;;;;;;;3.10;2.90;;;25.10;43.00;;;;;;5092635;28;20673;-74
2022/07/12 01:03:40;;;;;;;3.45;2.88;;;25.00;43.50;;;;;;5092306;28;20206;-75
2022/07/12 01:06:08;;;;;;;3.45;3.15;;;25.00;44.60;;;;;;5092804;28;20201;-77
2022/07/12 01:08:38;;;;;;;3.25;3.03;;;25.00;43.50;;;;;;5092151;28;20791;-77
2022/07/12 01:11:05;;;;;;;3.67;3.33;;;25.00;43.50;;;;;;5092050;28;20255;-80
2022/07/12 01:13:33;;;;;;;5.82;3.05;;;24.90;45.20;;;;;;5092257;28;20209;-71
2022/07/12 01:16:00;;;;;;;3.05;2.85;;;24.80;44.70;;;;;;5092137;28;20240;-75
2022/07/12 01:18:29;;;;;;;3.33;2.83;;;24.80;46.30;;;;;;5092127;28;20201;-83
2022/07/12 01:20:56;;;;;;;3.60;3.22;;;24.80;45.70;;;;;;5092091;28;20278;-75
2022/07/12 01:23:25;;;;;;;3.80;3.50;;;24.80;48.00;;;;;;5091559;28;20214;-73
2022/07/12 01:25:52;;;;;;;2.80;2.58;;;24.80;46.50;;;;;;5092068;28;20233;-74
2022/07/12 01:28:19;;;;;;;3.63;2.55;;;24.70;45.80;;;;;;5082636;28;20265;-74
2022/07/12 01:30:47;;;;;;;4.05;3.20;;;24.60;46.20;;;;;;5072328;28;20210;-73
2022/07/12 01:33:14;;;;;;;6.68;2.90;;;24.50;48.10;;;;;;5075407;28;20562;-77
2022/07/12 01:35:41;;;;;;;3.42;3.13;;;24.50;47.50;;;;;;5086560;28;20208;-79
2022/07/12 01:38:08;;;;;;;4.25;2.63;;;24.50;47.70;;;;;;5077936;28;20207;-77
2022/07/12 01:40:37;;;;;;;2.50;2.30;;;24.40;48.00;;;;;;5091115;28;20572;-78
2022/07/12 01:43:04;;;;;;;2.88;2.67;;;24.40;48.60;;;;;;5091933;28;20615;-81
2022/07/12 01:45:31;;;;;;;2.85;2.65;;;24.30;50.30;;;;;;5086844;28;20234;-75
2022/07/12 01:47:58;;;;;;;4.65;3.13;;;24.20;48.50;;;;;;5081997;28;20209;-74
2022/07/12 01:50:26;;;;;;;2.88;2.67;;;24.10;49.30;;;;;;5090585;28;20212;-74
2022/07/12 01:52:53;;;;;;;3.20;3.00;;;24.10;49.90;;;;;;5091798;28;20208;-77
2022/07/12 01:55:20;;;;;;;5.25;3.17;;;24.10;49.60;;;;;;5091078;28;20208;-75
2022/07/12 01:57:48;;;;;;;5.18;3.65;;;24.00;50.60;;;;;;5091738;28;20201;-74
2022/07/12 02:00:16;;;;;;;12.02;3.10;;;24.00;51.50;;;;;;5091471;28;20209;-71
2022/07/12 02:02:46;;;;;;;3.28;3.08;;;24.10;52.20;;;;;;5085992;28;20202;-76
2022/07/12 02:05:13;;;;;;;4.50;3.33;;;24.10;54.10;;;;;;5083692;28;20236;-73
2022/07/12 02:07:41;;;;;;;3.63;3.33;;;24.10;52.80;;;;;;5090994;28;20231;-76
2022/07/12 02:10:09;;;;;;;3.03;2.67;;;24.10;53.40;;;;;;5091203;28;20206;-73
2022/07/12 02:12:37;;;;;;;3.20;2.67;;;24.10;53.00;;;;;;5091216;28;20225;-80
2022/07/12 02:15:06;;;;;;;2.80;2.60;;;24.00;53.70;;;;;;5091330;28;20288;-82
2022/07/12 02:17:33;;;;;;;4.22;2.90;;;23.90;54.20;;;;;;5090654;28;20750;-82
2022/07/12 02:20:00;;;;;;;3.45;3.20;;;23.90;54.00;;;;;;5091462;28;20293;-82
2022/07/12 02:22:27;;;;;;;3.90;3.30;;;23.80;54.60;;;;;;5090988;28;20209;-72
2022/07/12 02:24:54;;;;;;;4.18;3.88;;;23.80;54.70;;;;;;5091028;28;20270;-73
2022/07/12 02:27:21;;;;;;;2.70;2.60;;;23.80;55.00;;;;;;5090570;28;20205;-72
2022/07/12 02:29:48;;;;;;;4.32;2.67;;;23.80;56.50;;;;;;5090543;28;20280;-74
2022/07/12 02:32:16;;;;;;;3.80;2.47;;;23.80;56.90;;;;;;5090928;28;20674;-73
2022/07/12 02:34:43;;;;;;;3.53;3.30;;;23.80;57.80;;;;;;5090958;28;21946;-78
2022/07/12 02:37:10;;;;;;;3.95;3.00;;;23.80;57.60;;;;;;5082743;28;20654;-77
2022/07/12 02:39:37;;;;;;;3.40;3.10;;;23.80;57.50;;;;;;5084465;28;20202;-78
2022/07/12 02:42:05;;;;;;;3.47;3.17;;;23.70;57.80;;;;;;5090766;28;20688;-76
2022/07/12 02:44:32;;;;;;;4.43;2.67;;;23.70;60.10;;;;;;5090227;28;20224;-75
2022/07/12 02:47:01;;;;;;;2.90;2.70;;;23.70;60.60;;;;;;5090349;28;20673;-73
2022/07/12 02:49:29;;;;;;;2.92;2.72;;;23.70;60.80;;;;;;5090519;28;20207;-73
2022/07/12 02:51:56;;;;;;;4.50;3.90;;;23.70;62.00;;;;;;5090301;28;20677;-75
2022/07/12 02:54:23;;;;;;;3.60;3.05;;;23.60;60.80;;;;;;5090166;28;20208;-78
2022/07/12 02:56:50;;;;;;;2.67;2.47;;;23.70;62.20;;;;;;5090353;28;20205;-72
2022/07/12 02:59:17;;;;;;;4.10;2.83;;;23.50;62.00;;;;;;5090308;28;20259;-76
2022/07/12 03:01:44;;;;;;;3.20;2.90;;;23.40;63.20;;;;;;5091023;28;20255;-73
2022/07/12 03:04:11;;;;;;;2.95;2.63;;;23.40;65.10;;;;;;5094888;28;20201;-74
2022/07/12 03:06:39;;;;;;;2.45;2.25;;;23.40;66.50;;;;;;5094189;28;20237;-72
2022/07/12 03:09:06;;;;;;;3.85;3.55;;;23.30;69.40;;;;;;5094506;28;20289;-70
2022/07/12 03:11:33;;;;;;;4.47;4.07;;;23.20;71.80;;;;;;5094042;28;20251;-74
2022/07/12 03:14:00;;;;;;;5.45;3.75;;;23.10;72.80;;;;;;5094397;28;20210;-74
2022/07/12 03:16:27;;;;;;;6.00;3.53;;;23.00;74.20;;;;;;5094521;28;20205;-72
2022/07/12 03:18:54;;;;;;;4.38;3.03;;;23.10;75.30;;;;;;5094516;28;20212;-72
2022/07/12 03:21:21;;;;;;;4.50;4.07;;;23.00;77.20;;;;;;5093962;28;20209;-76
2022/07/12 03:23:50;;;;;;;4.28;3.63;;;22.90;79.30;;;;;;5094172;28;20625;-75
2022/07/12 03:26:17;;;;;;;2.95;2.75;;;22.90;79.20;;;;;;5094251;28;20237;-76
2022/07/12 03:28:44;;;;;;;3.35;3.10;;;23.10;81.40;;;;;;5094836;28;20251;-70
2022/07/12 03:31:11;;;;;;;2.97;2.67;;;22.90;81.50;;;;;;5094565;28;20326;-71
2022/07/12 03:33:38;;;;;;;3.95;3.28;;;23.00;81.60;;;;;;5093966;28;20255;-77
2022/07/12 03:36:08;;;;;;;5.45;3.63;;;23.00;82.20;;;;;;5094066;28;20599;-80
2022/07/12 03:38:35;;;;;;;6.07;3.75;;;23.00;83.70;;;;;;5079413;28;20213;-78
2022/07/12 03:41:04;;;;;;;3.28;2.95;;;23.00;83.60;;;;;;5094201;28;20668;-77
2022/07/12 03:43:31;;;;;;;3.72;3.42;;;23.10;83.10;;;;;;5093630;28;20267;-73
2022/07/12 03:45:58;;;;;;;4.07;3.72;;;22.90;85.50;;;;;;5093947;28;20233;-81
2022/07/12 03:48:25;;;;;;;4.13;3.70;;;22.90;84.70;;;;;;5093692;28;20210;-79
2022/07/12 03:50:52;;;;;;;4.55;3.53;;;22.90;86.90;;;;;;5093825;28;20676;-79
2022/07/12 03:53:19;;;;;;;5.30;3.83;;;23.00;86.20;;;;;;5093328;28;20629;-79
2022/07/12 03:55:46;;;;;;;4.57;3.33;;;22.90;86.90;;;;;;5094175;28;20210;-81
2022/07/12 03:58:14;;;;;;;5.22;3.22;;;22.80;88.00;;;;;;5094465;28;20625;-81
2022/07/12 04:00:42;;;;;;;3.72;3.42;;;22.90;93.00;;;;;;5094182;28;20275;-81
2022/07/12 04:03:10;;;;;;;4.20;3.80;;;22.70;89.70;;;;;;5094276;28;20551;-74
2022/07/12 04:05:37;;;;;;;3.53;3.22;;;22.70;90.10;;;;;;5093019;28;20660;-74
2022/07/12 04:08:04;;;;;;;5.50;3.65;;;22.80;89.50;;;;;;5093724;28;20217;-80
2022/07/12 04:10:32;;;;;;;3.05;2.85;;;22.80;89.80;;;;;;5093227;28;20210;-75
2022/07/12 04:12:59;;;;;;;3.90;3.47;;;22.70;90.30;;;;;;5093176;28;20364;-80
2022/07/12 04:15:27;;;;;;;4.25;3.90;;;22.80;99.90;;;;;;5093123;28;20213;-79
2022/07/12 04:17:54;;;;;;;4.53;3.50;;;22.90;90.80;;;;;;5093570;28;20661;-80
2022/07/12 04:20:21;;;;;;;2.95;2.67;;;22.80;90.60;;;;;;5092774;28;20635;-77
2022/07/12 04:22:48;;;;;;;4.35;3.28;;;22.90;91.20;;;;;;5092949;28;20673;-80
2022/07/12 04:25:15;;;;;;;4.55;4.13;;;22.90;90.90;;;;;;5093115;28;20290;-77
2022/07/12 04:27:42;;;;;;;5.55;3.70;;;22.90;92.00;;;;;;5093000;28;20259;-79
2022/07/12 04:30:10;;;;;;;5.63;4.20;;;22.80;91.60;;;;;;5092907;28;20673;-73
2022/07/12 04:32:38;;;;;;;5.03;4.63;;;22.80;91.20;;;;;;5092187;28;20227;-77
2022/07/12 04:35:07;;;;;;;5.13;4.25;;;22.80;91.40;;;;;;5092860;28;20202;-76
2022/07/12 04:37:34;;;;;;;4.72;3.58;;;22.80;91.60;;;;;;5081278;28;20225;-77
2022/07/12 04:40:01;;;;;;;5.30;4.05;;;22.80;92.10;;;;;;5090370;28;20205;-79
2022/07/12 04:42:28;;;;;;;4.07;3.78;;;22.80;92.30;;;;;;5092526;28;20221;-73
2022/07/12 04:44:55;;;;;;;5.53;3.60;;;22.80;92.00;;;;;;5092860;28;20201;-75
2022/07/12 04:47:22;;;;;;;4.65;4.25;;;22.80;91.90;;;;;;5092011;28;20205;-75
2022/07/12 04:49:50;;;;;;;4.03;3.65;;;22.70;91.70;;;;;;5093036;28;20210;-79
2022/07/12 04:52:17;;;;;;;4.70;3.30;;;22.80;91.20;;;;;;5078703;28;20217;-76
2022/07/12 04:54:44;;;;;;;3.97;3.67;;;22.80;91.80;;;;;;5092484;28;20205;-70
2022/07/12 04:57:11;;;;;;;4.53;3.35;;;22.80;92.10;;;;;;5092830;28;20665;-78
2022/07/12 04:59:38;;;;;;;5.47;3.70;;;22.70;91.50;;;;;;5091689;28;20742;-78
2022/07/12 05:02:05;;;;;;;5.25;3.85;;;22.70;91.30;;;;;;5092115;28;20205;-80
2022/07/12 05:04:33;;;;;;;7.10;4.68;;;22.70;91.60;;;;;;5092296;28;20296;-74
2022/07/12 05:07:02;;;;;;;10.07;4.80;;;22.40;91.00;;;;;;5092416;28;20236;-81
2022/07/12 05:09:28;;;;;;;10.77;4.72;;;22.60;91.50;;;;;;5091975;28;20239;-75
2022/07/12 05:11:55;;;;;;;9.18;3.85;;;22.60;91.10;;;;;;5092445;28;20643;-80
2022/07/12 05:14:22;;;;;;;5.85;4.38;;;22.60;90.80;;;;;;5092084;28;20322;-82
2022/07/12 05:16:49;;;;;;;7.97;4.43;;;22.60;91.10;;;;;;5092285;28;20205;-81
2022/07/12 05:19:16;;;;;;;7.88;4.25;;;22.50;91.20;;;;;;5091905;28;20202;-74
2022/07/12 05:21:44;;;;;;;7.15;4.57;;;22.50;91.00;;;;;;5092530;28;20205;-81
2022/07/12 05:24:12;;;;;;;7.25;4.38;;;22.60;91.50;;;;;;5092310;28;20213;-81
2022/07/12 05:26:39;;;;;;;6.70;4.45;;;22.70;91.10;;;;;;5091381;28;20229;-81
2022/07/12 05:29:06;;;;;;;12.55;5.20;;;22.90;91.80;;;;;;5092169;28;20262;-80
2022/07/12 05:31:33;;;;;;;8.60;4.90;;;22.80;91.20;;;;;;5091784;28;20212;-80
2022/07/12 05:34:00;;;;;;;6.00;4.00;;;23.00;91.10;;;;;;5091981;28;20573;-81
2022/07/12 05:36:27;;;;;;;7.40;4.43;;;23.00;91.00;;;;;;5089398;28;20730;-82
2022/07/12 05:38:54;;;;;;;6.30;4.82;;;23.00;90.60;;;;;;5080165;28;20202;-82
2022/07/12 05:41:22;;;;;;;10.55;4.43;;;23.10;90.70;;;;;;5091980;28;20263;-82
2022/07/12 05:43:49;;;;;;;6.80;4.45;;;23.20;91.20;;;;;;5092196;28;20209;-82
2022/07/12 05:46:16;;;;;;;7.57;4.10;;;23.20;90.80;;;;;;5091956;28;20293;-78
2022/07/12 05:48:43;;;;;;;6.68;4.40;;;23.10;90.70;;;;;;5092714;28;20258;-79
2022/07/12 05:53:54;;;;;;;4.68;3.83;;;23.10;90.60;;;;;;5091678;28;20220;-81
2022/07/12 05:56:23;;;;;;;5.55;4.18;;;23.20;90.80;;;;;;5091098;28;20210;-78
2022/07/12 05:58:50;;;;;;;6.35;3.70;;;23.30;90.80;;;;;;5091294;28;20730;-80
2022/07/12 06:01:18;;;;;;;8.02;4.28;;;23.40;91.00;;;;;;5091035;28;20209;-79
2022/07/12 06:03:45;;;;;;;5.00;3.40;;;23.60;90.90;;;;;;5091590;28;20244;-77
2022/07/12 06:06:12;;;;;;;4.65;3.50;;;23.70;90.40;;;;;;5091862;28;20287;-69
2022/07/12 06:08:39;;;;;;;6.63;3.58;;;23.70;91.20;;;;;;5090875;28;20201;-79
2022/07/12 06:11:06;;;;;;;7.15;3.13;;;23.80;90.90;;;;;;5091642;28;20201;-79
2022/07/12 06:13:34;;;;;;;7.35;3.30;;;23.90;90.90;;;;;;5091147;28;20201;-74
2022/07/12 06:16:01;;;;;;;4.22;3.38;;;23.90;90.70;;;;;;5090804;28;20664;-79
2022/07/12 06:18:28;;;;;;;5.07;3.38;;;24.10;91.20;;;;;;5090738;28;20259;-82
2022/07/12 06:20:55;;;;;;;2.58;2.38;;;24.00;90.40;;;;;;5091106;28;20233;-77
2022/07/12 06:23:22;;;;;;;3.33;3.03;;;24.00;90.50;;;;;;5091163;28;20209;-82
2022/07/12 06:25:49;;;;;;;4.07;3.60;;;24.00;90.20;;;;;;5090957;28;20279;-78
2022/07/12 06:28:16;;;;;;;5.50;2.83;;;24.20;90.30;;;;;;5091138;28;20213;-70
2022/07/12 06:30:44;;;;;;;4.15;3.30;;;24.40;89.90;;;;;;5091172;28;20205;-79
2022/07/12 06:33:11;;;;;;;4.38;2.97;;;24.50;90.00;;;;;;5091328;28;20209;-79
2022/07/12 06:35:38;;;;;;;3.38;3.17;;;24.70;90.00;;;;;;5090712;28;20213;-84
2022/07/12 06:38:05;;;;;;;3.28;2.97;;;24.80;90.20;;;;;;5077349;28;20214;-84
2022/07/12 06:40:32;;;;;;;3.60;2.63;;;24.90;99.90;;;;;;5090853;28;20209;-82
2022/07/12 06:42:59;;;;;;;2.60;2.40;;;24.90;90.10;;;;;;5091334;28;20231;-76
2022/07/12 06:45:26;;;;;;;5.18;3.42;;;25.00;89.70;;;;;;5090583;28;20214;-81
2022/07/12 06:47:55;;;;;;;3.28;2.95;;;25.10;88.90;;;;;;5091078;28;20263;-82
2022/07/12 06:50:22;;;;;;;3.00;2.80;;;25.10;89.00;;;;;;5090393;28;20209;-83
2022/07/12 06:52:49;;;;;;;3.78;2.60;;;25.00;89.00;;;;;;5090844;28;20213;-80
2022/07/12 06:55:16;;;;;;;3.97;2.70;;;25.30;87.80;;;;;;5090297;28;20210;-70
2022/07/12 06:57:43;;;;;;;3.63;3.00;;;25.40;90.20;;;;;;5091228;28;20213;-82
2022/07/12 07:00:10;;;;;;;4.50;2.90;;;25.40;89.60;;;;;;5091066;28;20206;-82
2022/07/12 07:02:39;;;;;;;2.78;2.35;;;25.70;86.60;;;;;;5090363;28;20251;-82
2022/07/12 07:05:08;;;;;;;2.85;2.65;;;25.90;88.10;;;;;;5090815;28;20205;-77
2022/07/12 07:07:35;;;;;;;5.78;3.42;;;25.70;86.40;;;;;;5090536;28;20237;-78
2022/07/12 07:10:02;;;;;;;3.75;3.38;;;25.90;99.90;;;;;;5090915;28;20275;-75
2022/07/12 07:12:29;;;;;;;4.53;2.97;;;26.10;89.40;;;;;;5090033;28;20255;-82
2022/07/12 07:14:56;;;;;;;3.20;2.90;;;26.20;88.70;;;;;;5090651;28;20266;-77
2022/07/12 07:17:23;;;;;;;3.35;2.85;;;26.50;87.80;;;;;;5089720;28;20639;-82
2022/07/12 07:19:50;;;;;;;2.88;2.58;;;26.50;65.80;;;;;;5090686;28;20205;-73
2022/07/12 07:22:18;;;;;;;5.95;2.78;;;26.80;87.80;;;;;;5090358;28;20209;-77
2022/07/12 07:24:46;;;;;;;4.35;2.78;;;26.70;85.80;;;;;;5090729;28;20201;-75
2022/07/12 07:27:13;;;;;;;2.58;2.38;;;26.80;86.50;;;;;;5090571;28;20261;-82
2022/07/12 07:32:24;;;;;;;5.18;3.00;;;27.10;86.00;;;;;;5089619;28;20586;-70
2022/07/12 07:34:52;;;;;;;4.25;2.78;;;27.10;86.50;;;;;;5090262;28;20289;-73
2022/07/12 07:37:20;;;;;;;2.75;2.38;;;27.10;85.90;;;;;;5080806;28;20218;-77
2022/07/12 07:39:47;;;;;;;3.35;2.28;;;27.20;85.50;;;;;;5085750;28;20206;-71
2022/07/12 07:42:14;;;;;;;3.08;2.65;;;27.20;86.00;;;;;;5090162;28;20254;-69
2022/07/12 07:44:41;;;;;;;4.15;2.53;;;27.40;85.60;;;;;;5090712;28;20209;-74
2022/07/12 07:47:08;;;;;;;2.80;2.60;;;27.60;87.20;;;;;;5090340;28;20257;-79
2022/07/12 07:49:35;;;;;;;4.70;2.28;;;27.70;85.70;;;;;;5092670;28;20258;-81
2022/07/12 07:52:02;;;;;;;3.47;2.60;;;27.90;84.20;;;;;;5093904;28;20247;-79
2022/07/12 07:54:30;;;;;;;3.53;2.55;;;28.00;85.60;;;;;;5093666;28;20597;-78
2022/07/12 07:56:57;;;;;;;3.58;3.28;;;28.20;83.90;;;;;;5093338;28;20255;-74
2022/07/12 07:59:24;;;;;;;5.25;2.60;;;28.30;83.10;;;;;;5093826;28;20255;-74
2022/07/12 08:01:53;;;;;;;4.22;3.10;;;28.30;84.00;;;;;;5093917;28;20254;-74
2022/07/12 08:04:21;;;;;;;5.65;3.13;;;28.50;82.40;;;;;;5093356;28;20595;-70
2022/07/12 08:06:49;;;;;;;3.75;2.72;;;28.50;82.20;;;;;;5094107;28;20282;-76
2022/07/12 08:09:16;;;;;;;2.60;2.40;;;28.80;82.30;;;;;;5079161;28;20213;-70
2022/07/12 08:11:45;;;;;;;4.00;2.30;;;28.90;81.90;;;;;;5093798;28;20222;-70
2022/07/12 08:14:12;;;;;;;2.40;2.20;;;29.20;82.40;;;;;;5093780;28;20205;-69
2022/07/12 08:16:39;;;;;;;3.13;1.90;;;29.90;84.00;;;;;;5093580;28;20216;-74
2022/07/12 08:19:06;;;;;;;2.22;2.03;;;30.90;81.70;;;;;;5093345;28;20282;-75
2022/07/12 08:21:33;;;;;;;4.30;2.38;;;30.40;80.20;;;;;;5092917;28;20206;-69
2022/07/12 08:24:00;;;;;;;2.05;1.95;;;29.90;80.00;;;;;;5092952;28;20673;-74
2022/07/12 08:26:27;;;;;;;2.90;2.00;;;30.00;80.40;;;;;;5092867;28;20229;-77
2022/07/12 08:28:56;;;;;;;3.13;1.70;;;30.20;80.00;;;;;;5093316;28;20263;-70
2022/07/12 08:31:23;;;;;;;5.55;2.20;;;30.30;80.10;;;;;;5092850;28;20206;-71
2022/07/12 08:33:50;;;;;;;3.45;2.38;;;30.00;79.10;;;;;;5093116;28;20210;-79
2022/07/12 08:36:17;;;;;;;3.15;2.13;;;30.00;78.00;;;;;;5091625;28;20206;-73
2022/07/12 08:38:44;;;;;;;2.05;1.92;;;29.90;76.80;;;;;;5080142;28;20247;-69
2022/07/12 08:41:13;;;;;;;4.20;2.53;;;30.10;77.50;;;;;;5093248;28;20727;-72
2022/07/12 08:43:41;;;;;;;4.28;2.33;;;30.00;76.60;;;;;;5092953;28;20288;-77
2022/07/12 08:46:10;;;;;;;2.78;2.33;;;30.00;75.50;;;;;;5093040;28;20266;-79
2022/07/12 08:48:39;;;;;;;5.10;2.25;;;30.00;75.80;;;;;;5092575;28;20205;-82
2022/07/12 08:51:08;;;;;;;3.45;1.90;;;30.20;78.00;;;;;;5092955;28;20201;-80
2022/07/12 08:53:36;;;;;;;1.83;1.73;;;30.70;76.10;;;;;;5092549;28;20255;-81
2022/07/12 08:56:03;;;;;;;2.33;2.13;;;30.80;74.70;;;;;;5093032;28;20210;-82
2022/07/12 08:58:31;;;;;;;5.32;2.40;;;31.00;76.40;;;;;;5092674;28;20205;-82
2022/07/12 09:00:58;;;;;;;1.90;1.77;;;31.40;74.50;;;;;;5091753;28;20231;-77
2022/07/12 09:03:27;;;;;;;2.42;2.22;;;31.40;74.10;;;;;;5092558;28;20205;-83
2022/07/12 09:05:55;;;;;;;1.90;1.80;;;31.80;76.00;;;;;;5079571;28;20201;-84
2022/07/12 09:08:27;;;;;;;2.40;1.92;;;32.20;76.30;;;;;;5092567;28;20232;-83
2022/07/12 09:11:00;;;;;;;2.85;2.22;;;33.80;79.00;;;;;;5092352;28;20254;-75
2022/07/12 09:13:47;;;;;;;2.15;2.05;;;33.50;76.40;;;;;;5092043;28;20227;-79
2022/07/12 09:16:14;;;;;;;3.35;2.40;;;33.10;75.10;;;;;;5092711;28;20258;-75
2022/07/12 09:18:43;;;;;;;1.85;1.73;;;33.10;76.50;;;;;;5092791;28;20763;-78
2022/07/12 09:21:10;;;;;;;6.40;2.67;;;33.80;77.20;;;;;;5093152;28;20247;-79
2022/07/12 09:23:37;;;;;;;4.50;2.55;;;34.70;78.30;;;;;;5091612;28;20626;-75
2022/07/12 09:26:09;;;;;;;2.30;2.10;;;35.20;81.50;;;;;;5091898;28;20261;-82
2022/07/12 09:28:37;;;;;;;1.75;1.65;;;34.50;77.10;;;;;;5091603;28;20242;-79
2022/07/12 09:31:05;;;;;;;4.18;2.08;;;34.10;75.90;;;;;;5091831;28;20733;-74
2022/07/12 09:36:25;;;;;;;4.47;2.03;;;36.40;87.90;;;;;;5091055;28;20691;-77
2022/07/12 09:38:53;;;;;;;3.25;2.03;;;39.20;91.40;;;;;;5079461;28;20614;-75
2022/07/12 09:41:22;;;;;;;2.42;2.22;;;38.10;95.30;;;;;;5091738;28;20291;-78
2022/07/12 09:43:49;;;;;;;3.78;2.15;;;38.20;97.40;;;;;;5092035;28;20204;-83
2022/07/12 09:46:17;;;;;;;2.83;2.63;;;41.70;99.90;;;;;;5092050;28;20209;-71
2022/07/12 09:48:45;;;;;;;3.08;2.20;;;41.50;99.90;;;;;;5092012;28;20319;-82
2022/07/12 09:51:16;;;;;;;2.55;2.40;;;40.40;99.90;;;;;;5092043;28;20288;-84
2022/07/12 09:53:46;;;;;;;2.28;2.08;;;40.40;97.30;;;;;;5091703;28;20201;-84
2022/07/12 09:56:14;;;;;;;3.28;2.50;;;40.80;98.30;;;;;;5092038;28;20668;-84
2022/07/12 09:58:48;;;;;;;2.22;2.03;;;38.70;91.90;;;;;;5091904;28;20299;-84
2022/07/12 10:01:17;;;;;;;2.13;1.92;;;38.80;91.00;;;;;;5091492;28;20616;-83
2022/07/12 10:03:45;;;;;;;2.53;2.33;;;37.50;88.50;;;;;;5091506;28;20250;-74
2022/07/12 10:06:14;;;;;;;2.80;2.55;;;37.50;86.50;;;;;;5091723;28;20253;-79
2022/07/12 10:08:41;;;;;;;5.35;3.20;;;38.90;86.00;;;;;;5091746;28;20232;-83
2022/07/12 10:11:12;;;;;;;3.00;1.85;;;38.30;91.60;;;;;;5090803;28;20208;-84
2022/07/12 10:13:40;;;;;;;3.65;2.38;;;39.60;91.00;;;;;;5091284;28;20240;-82
2022/07/12 10:16:11;;;;;;;3.08;2.17;;;40.80;96.70;;;;;;5091413;28;20200;-82
2022/07/12 10:18:38;;;;;;;2.20;1.98;;;41.90;92.30;;;;;;5091093;28;20212;-80
2022/07/12 10:21:19;;;;;;;2.55;2.35;;;43.90;99.00;;;;;;5090672;28;20222;-85
2022/07/12 10:23:46;;;;;;;3.08;2.88;;;42.70;99.90;;;;;;5091554;28;20223;-83
2022/07/12 10:26:41;;;;;;;2.97;2.40;;;45.00;99.90;;;;;;5091379;28;20668;-85
2022/07/12 10:29:10;;;;;;;2.50;2.30;;;43.10;97.20;;;;;;5090982;28;20690;-83
2022/07/12 10:31:39;;;;;;;2.67;2.47;;;44.60;98.70;;;;;;5090826;28;20215;-85
2022/07/12 10:34:14;;;;;;;2.95;2.75;;;42.70;96.40;;;;;;5091276;28;20212;-81
2022/07/12 10:37:21;;;;;;;3.47;2.38;;;45.10;99.90;;;;;;5087629;28;20201;-82
2022/07/12 10:40:13;;;;;;;3.88;2.60;;;45.60;99.90;;;;;;5086570;28;20205;-85
2022/07/12 10:43:02;;;;;;;2.50;2.30;;;42.70;87.70;;;;;;5092377;28;20638;-78
2022/07/12 10:45:32;;;;;;;3.30;2.33;;;38.50;63.10;;;;;;5090671;28;20283;-74
2022/07/12 10:48:00;;;;;;;3.30;3.08;;;35.70;53.70;;;;;;5091079;28;20323;-73
2022/07/12 10:50:56;;;;;;;3.42;3.05;;;35.20;51.40;;;;;;5090092;28;20656;-78
2022/07/12 10:53:25;;;;;;;3.38;2.40;;;34.60;50.20;;;;;;5090397;28;20300;-78
2022/07/12 10:56:14;;;;;;;2.33;2.22;;;34.40;49.30;;;;;;5090760;28;20204;-79
2022/07/12 10:58:46;;;;;;;3.45;2.85;;;34.60;50.00;;;;;;5090973;28;20221;-76
2022/07/12 11:01:15;;;;;;;2.60;2.50;;;34.90;51.50;;;;;;5091075;28;20243;-77
2022/07/12 11:03:44;;;;;;;2.97;2.78;;;35.00;50.70;;;;;;5090919;28;20211;-72
2022/07/12 11:06:12;;;;;;;3.78;3.30;;;34.70;49.90;;;;;;5090685;28;20258;-79
2022/07/12 11:08:57;;;;;;;5.38;2.92;;;34.90;51.30;;;;;;5090130;28;20229;-75
2022/07/12 11:11:26;;;;;;;2.50;2.30;;;35.20;52.20;;;;;;5090175;28;20238;-80
2022/07/12 11:13:55;;;;;;;4.40;2.72;;;35.10;50.10;;;;;;5090384;28;20675;-82
2022/07/12 11:16:22;;;;;;;4.45;2.80;;;35.20;51.20;;;;;;5090108;28;20677;-80
2022/07/12 11:18:50;;;;;;;2.92;2.72;;;34.90;49.50;;;;;;5089890;28;20216;-79
2022/07/12 11:21:17;;;;;;;2.97;2.25;;;34.40;47.40;;;;;;5090332;28;20222;-82
2022/07/12 11:23:44;;;;;;;3.13;2.92;;;34.70;48.90;;;;;;5091720;28;20200;-70
2022/07/12 11:26:12;;;;;;;2.83;2.50;;;35.00;49.00;;;;;;5094617;28;20201;-74
2022/07/12 11:28:41;;;;;;;3.00;2.78;;;34.40;47.50;;;;;;5094251;28;20662;-80
2022/07/12 11:31:12;;;;;;;3.20;2.90;;;34.70;48.30;;;;;;5094221;28;20258;-72
2022/07/12 11:33:41;;;;;;;2.75;2.55;;;35.00;50.40;;;;;;5093877;28;20664;-81
2022/07/12 11:36:09;;;;;;;3.28;2.63;;;34.60;46.60;;;;;;5094465;28;20205;-79
2022/07/12 11:38:38;;;;;;;2.95;2.72;;;34.80;48.30;;;;;;5079224;28;20729;-80
2022/07/12 11:41:06;;;;;;;3.28;2.58;;;35.20;49.60;;;;;;5093952;28;20620;-77
2022/07/12 11:43:35;;;;;;;3.00;2.70;;;35.40;49.90;;;;;;5093948;28;20204;-79
2022/07/12 11:46:02;;;;;;;3.33;3.13;;;35.50;52.00;;;;;;5093958;28;20205;-77
2022/07/12 11:48:32;;;;;;;3.47;2.65;;;35.90;51.60;;;;;;5093146;28;20765;-82
2022/07/12 11:51:03;;;;;;;5.90;3.08;;;35.70;51.90;;;;;;5094093;28;20247;-80
2022/07/12 11:53:32;;;;;;;4.68;2.75;;;35.60;51.50;;;;;;5093522;28;20661;-81
2022/07/12 11:56:00;;;;;;;2.72;2.55;;;35.00;50.40;;;;;;5094182;28;20322;-76
2022/07/12 11:58:29;;;;;;;3.88;2.45;;;35.50;51.80;;;;;;5093174;28;20207;-81
2022/07/12 12:00:57;;;;;;;2.20;2.00;;;35.30;49.40;;;;;;5094097;28;20200;-73
2022/07/12 12:03:24;;;;;;;5.57;2.90;;;35.30;48.50;;;;;;5093611;28;20227;-76
2022/07/12 12:05:54;;;;;;;3.35;3.00;;;35.50;49.30;;;;;;5093962;28;20209;-77
2022/07/12 12:08:21;;;;;;;1.90;1.80;;;36.00;50.10;;;;;;5093263;28;20236;-77
2022/07/12 12:10:57;;;;;;;2.95;2.30;;;36.10;51.20;;;;;;5093622;28;20274;-83
2022/07/12 12:13:25;;;;;;;7.60;2.63;;;36.20;51.00;;;;;;5092976;28;20694;-78
2022/07/12 12:15:53;;;;;;;5.63;2.97;;;35.80;48.70;;;;;;5093632;28;20208;-82
2022/07/12 12:18:30;;;;;;;3.70;2.67;;;35.60;49.30;;;;;;5093282;28;20204;-71
2022/07/12 12:21:04;;;;;;;3.05;2.35;;;35.90;49.80;;;;;;5093870;28;20287;-83
2022/07/12 12:23:31;;;;;;;2.95;2.60;;;35.90;50.00;;;;;;5093226;28;20274;-78
2022/07/12 12:26:12;;;;;;;2.72;2.35;;;35.80;48.70;;;;;;5093259;28;20209;-77
2022/07/12 12:28:42;;;;;;;2.75;2.35;;;35.70;49.30;;;;;;5093031;28;20232;-75
2022/07/12 12:31:11;;;;;;;2.42;2.22;;;35.70;48.30;;;;;;5093382;28;20208;-75
2022/07/12 12:33:39;;;;;;;6.35;2.85;;;35.60;47.50;;;;;;5092643;28;20676;-73
2022/07/12 12:36:22;;;;;;;4.10;2.67;;;35.70;47.00;;;;;;5092637;28;20242;-71
2022/07/12 12:38:50;;;;;;;3.35;2.63;;;36.10;49.90;;;;;;5093208;28;20568;-77
2022/07/12 12:41:19;;;;;;;3.28;2.38;;;36.30;49.10;;;;;;5092802;28;20201;-80
2022/07/12 12:43:46;;;;;;;2.33;2.13;;;36.40;49.90;;;;;;5092971;28;20232;-78
2022/07/12 12:46:13;;;;;;;2.45;2.25;;;36.40;51.50;;;;;;5092965;28;20205;-74
2022/07/12 12:48:48;;;;;;;4.32;2.70;;;36.40;49.20;;;;;;5092610;28;20270;-77
2022/07/12 12:51:15;;;;;;;2.30;2.10;;;36.50;50.20;;;;;;5093046;28;20208;-77
2022/07/12 12:53:44;;;;;;;2.70;2.55;;;36.60;49.70;;;;;;5093298;28;20200;-78
2022/07/12 12:56:12;;;;;;;3.40;2.33;;;36.60;49.50;;;;;;5093099;28;20258;-76
2022/07/12 12:58:40;;;;;;;2.50;2.30;;;36.80;51.60;;;;;;5092656;28;20749;-74
2022/07/12 13:01:08;;;;;;;3.60;2.72;;;36.70;50.00;;;;;;5092588;28;20274;-78